createdAt,value
2019-03-26T00:00:24.960Z,1.33
2019-03-26T00:02:51.084Z,1.36
2019-03-26T00:05:17.309Z,1.35
2019-03-26T00:07:43.467Z,1.38
2019-03-26T00:10:09.812Z,1.34
2019-03-26T00:12:35.943Z,1.35
2019-03-26T00:15:03.162Z,1.32
2019-03-26T00:17:29.440Z,1.34
2019-03-26T00:19:55.685Z,1.35
2019-03-26T00:22:21.937Z,1.34
2019-03-26T00:24:48.182Z,1.34
2019-03-26T00:27:14.531Z,1.35
2019-03-26T00:29:40.777Z,1.35
2019-03-26T00:32:06.971Z,1.41
2019-03-26T00:34:33.378Z,1.42
2019-03-26T00:36:59.616Z,1.41
2019-03-26T00:39:25.791Z,1.43
2019-03-26T00:41:52.004Z,1.43
2019-03-26T00:44:18.399Z,1.47
2019-03-26T00:46:44.653Z,1.48
2019-03-26T00:49:10.836Z,1.44
2019-03-26T00:51:37.044Z,1.46
2019-03-26T00:54:03.231Z,1.46
2019-03-26T00:56:29.392Z,1.49
2019-03-26T00:58:55.651Z,1.47
2019-03-26T01:01:21.795Z,1.50
2019-03-26T01:03:48.065Z,1.50
2019-03-26T01:06:14.374Z,1.48
2019-03-26T01:08:40.607Z,1.51
2019-03-26T01:11:06.820Z,1.52
2019-03-26T01:13:33.045Z,1.55
2019-03-26T01:15:59.155Z,1.56
2019-03-26T01:18:25.419Z,1.54
2019-03-26T01:20:51.655Z,1.56
2019-03-26T01:23:17.996Z,1.58
2019-03-26T01:25:44.135Z,1.57
2019-03-26T01:28:10.403Z,1.57
2019-03-26T01:30:36.578Z,1.57
2019-03-26T01:33:03.006Z,1.57
2019-03-26T01:35:29.187Z,1.60
2019-03-26T01:37:55.419Z,1.65
2019-03-26T01:40:21.518Z,1.66
2019-03-26T01:42:47.806Z,1.66
2019-03-26T01:45:14.164Z,1.67
2019-03-26T01:47:40.414Z,1.67
2019-03-26T01:50:07.222Z,1.68
2019-03-26T01:52:34.494Z,1.72
2019-03-26T01:55:00.693Z,1.70
2019-03-26T01:57:26.908Z,1.67
2019-03-26T01:59:53.086Z,1.66
2019-03-26T02:02:19.354Z,1.69
2019-03-26T02:04:58.879Z,1.67
2019-03-26T02:07:13.606Z,1.63
2019-03-26T02:09:39.780Z,1.65
2019-03-26T02:12:05.945Z,1.62
2019-03-26T02:14:32.111Z,1.57
2019-03-26T02:16:58.522Z,1.56
2019-03-26T02:19:24.700Z,1.56
2019-03-26T02:21:51.054Z,1.60
2019-03-26T02:24:17.159Z,1.61
2019-03-26T02:26:43.433Z,1.58
2019-03-26T02:29:09.548Z,1.59
2019-03-26T02:31:35.761Z,1.61
2019-03-26T02:34:01.892Z,1.62
2019-03-26T02:36:28.126Z,1.65
2019-03-26T02:38:54.392Z,1.67
2019-03-26T02:41:20.777Z,1.68
2019-03-26T02:43:47.136Z,1.68
2019-03-26T02:46:13.405Z,1.71
2019-03-26T02:48:39.547Z,1.73
2019-03-26T02:51:05.885Z,1.73
2019-03-26T02:53:32.194Z,1.74
2019-03-26T02:55:58.713Z,1.75
2019-03-26T02:58:24.911Z,1.74
2019-03-26T03:00:51.178Z,1.72
2019-03-26T03:03:17.582Z,1.72
2019-03-26T03:05:43.790Z,1.72
2019-03-26T03:08:10.047Z,1.72
2019-03-26T03:10:36.314Z,1.73
2019-03-26T03:13:02.763Z,1.73
2019-03-26T03:15:28.868Z,1.73
2019-03-26T03:17:55.356Z,1.74
2019-03-26T03:20:21.675Z,1.73
2019-03-26T03:22:47.914Z,1.74
2019-03-26T03:25:15.120Z,1.74
2019-03-26T03:27:41.453Z,1.79
2019-03-26T03:30:08.427Z,1.80
2019-03-26T03:32:34.707Z,1.79
2019-03-26T03:35:00.957Z,1.79
2019-03-26T03:37:27.268Z,1.83
2019-03-26T03:39:53.571Z,1.87
2019-03-26T03:42:19.940Z,1.90
2019-03-26T03:44:46.191Z,1.89
2019-03-26T03:47:13.508Z,1.86
2019-03-26T03:49:40.211Z,1.86
2019-03-26T03:52:07.623Z,1.86
2019-03-26T03:54:37.626Z,1.85
2019-03-26T03:57:05.339Z,1.87
2019-03-26T03:59:32.387Z,1.84
2019-03-26T04:01:58.829Z,1.86
2019-03-26T04:04:25.137Z,1.85
2019-03-26T04:06:51.440Z,1.83
2019-03-26T04:09:17.719Z,1.81
2019-03-26T04:11:45.341Z,1.82
2019-03-26T04:14:11.586Z,1.84
2019-03-26T04:16:37.870Z,1.82
2019-03-26T04:19:03.998Z,1.82
2019-03-26T04:21:30.274Z,1.81
2019-03-26T04:23:56.377Z,1.81
2019-03-26T04:26:22.614Z,1.84
2019-03-26T04:28:49.442Z,1.83
2019-03-26T04:31:15.851Z,1.84
2019-03-26T04:33:42.109Z,1.84
2019-03-26T04:36:24.214Z,1.83
2019-03-26T04:38:36.748Z,1.84
2019-03-26T04:41:03.073Z,1.84
2019-03-26T04:43:29.304Z,1.83
2019-03-26T04:45:56.477Z,1.83
2019-03-26T04:48:22.759Z,1.82
2019-03-26T04:50:48.924Z,1.82
2019-03-26T04:53:15.228Z,1.83
2019-03-26T04:55:41.548Z,1.84
2019-03-26T04:58:07.790Z,1.83
2019-03-26T05:00:33.953Z,1.82
2019-03-26T05:03:00.209Z,1.81
2019-03-26T05:05:26.478Z,1.81
2019-03-26T05:07:52.933Z,1.82
2019-03-26T05:10:19.115Z,1.83
2019-03-26T05:12:45.297Z,1.86
2019-03-26T05:15:11.581Z,1.89
2019-03-26T05:17:37.766Z,1.89
2019-03-26T05:20:05.963Z,1.87
2019-03-26T05:22:32.262Z,1.90
2019-03-26T05:24:58.673Z,1.92
2019-03-26T05:27:24.802Z,1.92
2019-03-26T05:29:52.136Z,1.94
2019-03-26T05:32:18.404Z,1.95
2019-03-26T05:34:44.615Z,1.94
2019-03-26T05:37:10.942Z,1.95
2019-03-26T05:39:37.600Z,1.94
2019-03-26T05:42:03.891Z,1.95
2019-03-26T05:44:30.147Z,1.99
2019-03-26T05:46:56.420Z,1.98
2019-03-26T05:49:23.011Z,2.02
2019-03-26T05:51:49.359Z,2.03
2019-03-26T05:54:15.514Z,2.05
2019-03-26T05:56:41.715Z,2.05
2019-03-26T05:59:07.822Z,2.06
2019-03-26T06:01:34.057Z,2.05
2019-03-26T06:04:00.166Z,2.04
2019-03-26T06:06:26.368Z,2.05
2019-03-26T06:08:52.456Z,2.07
2019-03-26T06:11:18.642Z,2.09
2019-03-26T06:13:44.813Z,2.09
2019-03-26T06:16:11.020Z,2.12
2019-03-26T06:18:37.271Z,2.16
2019-03-26T06:21:03.541Z,2.16
2019-03-26T06:23:29.754Z,2.17
2019-03-26T06:25:55.984Z,2.20
2019-03-26T06:28:22.066Z,2.21
2019-03-26T06:30:48.589Z,2.23
2019-03-26T06:33:14.742Z,2.24
2019-03-26T06:35:40.980Z,2.25
2019-03-26T06:38:07.067Z,2.30
2019-03-26T06:40:33.285Z,2.33
2019-03-26T06:42:59.450Z,2.32
2019-03-26T06:45:25.639Z,2.31
2019-03-26T06:47:51.801Z,2.35
2019-03-26T06:50:18.197Z,2.40
2019-03-26T06:52:44.477Z,2.43
2019-03-26T06:55:11.322Z,2.52
2019-03-26T06:57:40.409Z,2.55
2019-03-26T07:00:09.081Z,2.50
2019-03-26T07:02:35.731Z,2.51
2019-03-26T07:05:02.204Z,2.48
2019-03-26T07:07:31.692Z,2.53
2019-03-26T07:09:57.418Z,2.55
2019-03-26T07:12:23.573Z,2.56
2019-03-26T07:14:49.809Z,2.57
2019-03-26T07:17:15.936Z,2.59
2019-03-26T07:19:42.204Z,2.56
2019-03-26T07:22:08.522Z,2.58
2019-03-26T07:24:34.771Z,2.59
2019-03-26T07:27:01.057Z,2.62
2019-03-26T07:29:27.396Z,2.65
2019-03-26T07:31:53.483Z,2.65
2019-03-26T07:34:19.757Z,2.62
2019-03-26T07:36:45.863Z,2.61
2019-03-26T07:39:12.107Z,2.64
2019-03-26T07:41:38.585Z,2.64
2019-03-26T07:44:04.952Z,2.64
2019-03-26T07:46:31.111Z,2.66
2019-03-26T07:48:57.290Z,2.69
2019-03-26T07:51:23.454Z,2.71
2019-03-26T07:53:49.699Z,2.78
2019-03-26T07:56:15.826Z,2.82
2019-03-26T07:58:42.143Z,2.84
2019-03-26T08:01:10.090Z,2.86
2019-03-26T08:03:36.489Z,2.84
2019-03-26T08:06:02.808Z,2.90
2019-03-26T08:08:28.995Z,2.88
2019-03-26T08:10:55.257Z,2.85
2019-03-26T08:13:21.560Z,2.82
2019-03-26T08:15:47.846Z,2.79
2019-03-26T08:18:14.118Z,2.80
2019-03-26T08:20:40.251Z,2.84
2019-03-26T08:23:06.504Z,2.94
2019-03-26T08:25:34.010Z,3.05
2019-03-26T08:28:00.709Z,3.14
2019-03-26T08:30:26.816Z,3.11
2019-03-26T08:32:53.088Z,3.09
2019-03-26T08:35:19.196Z,3.15
2019-03-26T08:37:45.409Z,3.28
2019-03-26T08:40:11.816Z,3.21
2019-03-26T08:42:38.061Z,3.23
2019-03-26T08:45:06.588Z,3.19
2019-03-26T08:47:32.754Z,3.12
2019-03-26T08:49:59.211Z,3.07
2019-03-26T08:52:25.574Z,3.09
2019-03-26T08:54:51.970Z,3.10
2019-03-26T08:57:18.220Z,3.15
2019-03-26T08:59:44.457Z,3.22
2019-03-26T09:02:10.569Z,3.22
2019-03-26T09:04:37.907Z,3.28
2019-03-26T09:07:04.153Z,3.35
2019-03-26T09:09:30.441Z,3.42
2019-03-26T09:11:57.732Z,3.46
2019-03-26T09:14:24.225Z,3.47
2019-03-26T09:16:50.424Z,3.52
2019-03-26T09:19:16.673Z,3.63
2019-03-26T09:21:42.952Z,3.74
2019-03-26T09:24:09.184Z,3.82
2019-03-26T09:26:35.295Z,3.83
2019-03-26T09:29:01.539Z,3.82
2019-03-26T09:31:27.791Z,3.79
2019-03-26T09:33:54.062Z,3.73
2019-03-26T09:36:20.213Z,3.67
2019-03-26T09:38:46.423Z,3.59
2019-03-26T09:41:12.693Z,3.51
2019-03-26T09:43:38.866Z,3.47
2019-03-26T09:46:05.025Z,3.50
2019-03-26T09:48:31.251Z,3.59
2019-03-26T09:50:57.410Z,3.66
2019-03-26T09:53:23.745Z,3.66
2019-03-26T09:55:50.059Z,3.63
2019-03-26T09:58:16.319Z,3.61
2019-03-26T10:00:42.541Z,3.57
2019-03-26T10:03:08.967Z,3.54
2019-03-26T10:05:35.198Z,3.56
2019-03-26T10:08:01.542Z,3.54
2019-03-26T10:10:27.656Z,3.53
2019-03-26T10:12:53.987Z,3.48
2019-03-26T10:15:20.183Z,3.51
2019-03-26T10:17:46.373Z,3.57
2019-03-26T10:20:13.826Z,3.71
2019-03-26T10:22:40.256Z,3.84
2019-03-26T10:25:10.681Z,3.98
2019-03-26T10:27:35.474Z,3.97
2019-03-26T10:30:05.797Z,3.88
2019-03-26T10:32:31.891Z,3.80
2019-03-26T10:34:58.203Z,3.76
2019-03-26T10:37:24.779Z,3.61
2019-03-26T10:39:50.923Z,3.49
2019-03-26T10:42:17.169Z,3.59
2019-03-26T10:44:43.255Z,3.75
2019-03-26T10:47:09.533Z,4.04
2019-03-26T10:49:35.676Z,4.42
2019-03-26T10:52:02.006Z,4.75
2019-03-26T10:54:28.193Z,5.12
2019-03-26T10:56:54.362Z,5.50
2019-03-26T10:59:20.540Z,5.29
2019-03-26T11:01:46.942Z,4.96
2019-03-26T11:04:13.279Z,4.67
2019-03-26T11:06:39.878Z,4.66
2019-03-26T11:09:20.090Z,4.54
2019-03-26T11:11:34.433Z,4.45
2019-03-26T11:14:00.657Z,4.51
2019-03-26T11:16:27.081Z,4.66
2019-03-26T11:18:53.303Z,4.77
2019-03-26T11:21:19.419Z,5.05
2019-03-26T11:23:45.610Z,5.46
2019-03-26T11:26:11.930Z,5.62
2019-03-26T11:28:38.207Z,5.68
2019-03-26T11:31:04.748Z,5.55
2019-03-26T11:33:30.941Z,5.47
2019-03-26T11:35:57.195Z,5.30
2019-03-26T11:38:23.485Z,5.02
2019-03-26T11:40:49.821Z,4.83
2019-03-26T11:43:16.183Z,4.87
2019-03-26T11:45:42.551Z,5.00
2019-03-26T11:48:08.827Z,5.25
2019-03-26T11:50:35.047Z,5.63
2019-03-26T11:53:01.401Z,5.79
2019-03-26T11:55:27.554Z,5.79
2019-03-26T11:57:53.767Z,5.74
2019-03-26T12:00:22.453Z,5.57
2019-03-26T12:02:48.763Z,5.54
2019-03-26T12:05:15.420Z,5.48
2019-03-26T12:07:42.991Z,5.32
2019-03-26T12:10:09.879Z,5.16
2019-03-26T12:12:36.093Z,5.04
2019-03-26T12:15:04.823Z,4.98
2019-03-26T12:17:31.005Z,5.16
2019-03-26T12:19:57.305Z,5.33
2019-03-26T12:22:23.589Z,5.52
2019-03-26T12:24:49.832Z,5.36
2019-03-26T12:27:15.956Z,5.24
2019-03-26T12:29:42.190Z,5.17
2019-03-26T12:32:08.294Z,5.13
2019-03-26T12:34:34.519Z,5.06
2019-03-26T12:37:00.694Z,5.10
2019-03-26T12:39:26.989Z,5.06
2019-03-26T12:41:53.215Z,4.98
2019-03-26T12:44:19.309Z,4.98
2019-03-26T12:46:45.499Z,4.98
2019-03-26T12:49:11.729Z,4.96
2019-03-26T12:51:39.557Z,4.97
2019-03-26T12:54:05.926Z,5.05
2019-03-26T12:56:32.187Z,5.21
2019-03-26T12:58:58.568Z,5.43
2019-03-26T13:01:24.899Z,5.37
2019-03-26T13:03:51.216Z,5.27
2019-03-26T13:06:17.633Z,5.42
2019-03-26T13:08:43.768Z,5.35
2019-03-26T13:11:10.100Z,5.28
2019-03-26T13:13:36.411Z,5.32
2019-03-26T13:16:02.794Z,5.75
2019-03-26T13:21:28.341Z,7.48
2019-03-26T13:23:55.628Z,8.04
2019-03-26T13:26:21.806Z,7.42
2019-03-26T13:28:47.985Z,7.28
2019-03-26T13:31:14.427Z,7.18
2019-03-26T13:33:40.527Z,7.61
2019-03-26T13:36:06.931Z,9.48
2019-03-26T13:38:33.084Z,8.71
2019-03-26T13:40:59.512Z,8.04
2019-03-26T13:43:25.683Z,7.43
2019-03-26T13:45:51.875Z,7.22
2019-03-26T13:48:17.990Z,9.46
2019-03-26T13:50:44.179Z,10.08
2019-03-26T13:53:10.278Z,9.28
2019-03-26T13:55:36.573Z,8.61
2019-03-26T13:58:02.997Z,8.58
2019-03-26T14:00:35.411Z,8.43
2019-03-26T14:03:01.825Z,8.87
2019-03-26T14:05:28.300Z,8.59
2019-03-26T14:07:54.662Z,8.27
2019-03-26T14:10:20.861Z,7.74
2019-03-26T14:12:47.228Z,7.44
2019-03-26T14:15:13.334Z,7.23
2019-03-26T14:17:39.572Z,7.09
2019-03-26T14:20:05.771Z,7.28
2019-03-26T14:22:32.009Z,7.15
2019-03-26T14:24:58.220Z,6.94
2019-03-26T14:27:25.782Z,6.77
2019-03-26T14:29:51.949Z,6.59
2019-03-26T14:32:18.376Z,6.50
2019-03-26T14:34:48.172Z,6.41
2019-03-26T14:37:12.657Z,6.35
2019-03-26T14:39:40.377Z,6.30
2019-03-26T14:42:06.539Z,6.19
2019-03-26T14:44:32.811Z,6.09
2019-03-26T14:46:59.216Z,6.00
2019-03-26T14:49:25.432Z,5.92
2019-03-26T14:51:51.516Z,5.85
2019-03-26T14:54:17.723Z,5.77
2019-03-26T14:56:43.830Z,5.68
2019-03-26T14:59:10.056Z,5.62
2019-03-26T15:01:36.222Z,5.57
2019-03-26T15:04:02.742Z,5.47
2019-03-26T15:06:29.014Z,5.45
2019-03-26T15:08:55.295Z,5.38
2019-03-26T15:11:21.592Z,5.36
2019-03-26T15:13:49.445Z,5.34
2019-03-26T15:16:17.290Z,5.30
2019-03-26T15:18:43.472Z,5.27
2019-03-26T15:21:09.754Z,5.29
2019-03-26T15:23:35.930Z,5.26
2019-03-26T15:26:02.266Z,5.25
2019-03-26T15:28:28.368Z,5.23
2019-03-26T15:30:54.618Z,5.21
2019-03-26T15:33:20.728Z,5.20
2019-03-26T15:35:46.968Z,5.18
2019-03-26T15:38:13.088Z,5.10
2019-03-26T15:40:39.309Z,5.08
2019-03-26T15:43:05.470Z,5.07
2019-03-26T15:45:31.671Z,5.05
2019-03-26T15:47:57.860Z,5.04
2019-03-26T15:50:42.051Z,5.00
2019-03-26T15:53:08.551Z,5.03
2019-03-26T15:55:34.786Z,5.08
2019-03-26T15:58:00.997Z,5.04
2019-03-26T16:00:30.371Z,5.04
2019-03-26T16:02:57.492Z,5.07
2019-03-26T16:05:23.875Z,5.04
2019-03-26T16:07:50.100Z,5.02
2019-03-26T16:10:16.198Z,5.01
2019-03-26T16:12:42.384Z,4.95
2019-03-26T16:15:08.770Z,4.91
2019-03-26T16:17:36.101Z,4.86
2019-03-26T16:20:05.235Z,4.85
2019-03-26T16:22:31.550Z,4.83
2019-03-26T16:24:57.687Z,4.78
2019-03-26T16:27:24.024Z,4.75
2019-03-26T16:29:50.177Z,4.68
2019-03-26T16:32:16.459Z,4.66
2019-03-26T16:34:42.689Z,4.66
2019-03-26T16:37:08.806Z,4.60
2019-03-26T16:39:35.125Z,4.59
2019-03-26T16:42:01.359Z,4.58
2019-03-26T16:44:27.590Z,4.56
2019-03-26T16:46:53.709Z,4.56
2019-03-26T16:49:19.915Z,4.53
2019-03-26T16:51:46.040Z,4.53
2019-03-26T16:54:12.253Z,4.50
2019-03-26T16:56:38.362Z,4.43
2019-03-26T16:59:04.667Z,4.45
2019-03-26T17:01:30.836Z,4.41
2019-03-26T17:03:57.223Z,4.38
2019-03-26T17:06:23.542Z,4.38
2019-03-26T17:08:49.704Z,4.36
2019-03-26T17:11:16.969Z,4.30
2019-03-26T17:13:44.306Z,4.25
2019-03-26T17:16:10.563Z,4.22
2019-03-26T17:18:37.828Z,4.23
2019-03-26T17:21:04.075Z,4.21
2019-03-26T17:23:30.423Z,4.17
2019-03-26T17:25:56.612Z,4.11
2019-03-26T17:28:22.958Z,4.09
2019-03-26T17:30:49.286Z,4.02
2019-03-26T17:33:15.644Z,4.03
2019-03-26T17:35:41.857Z,4.00
2019-03-26T17:38:08.093Z,3.97
2019-03-26T17:40:34.369Z,3.99
2019-03-26T17:43:00.607Z,3.96
2019-03-26T17:45:26.729Z,3.92
2019-03-26T17:47:52.936Z,3.88
2019-03-26T17:50:20.319Z,3.88
2019-03-26T17:52:46.525Z,3.85
2019-03-26T17:55:12.744Z,3.87
2019-03-26T17:57:39.047Z,3.87
2019-03-26T18:00:08.943Z,3.85
2019-03-26T18:02:35.351Z,3.81
2019-03-26T18:05:02.018Z,3.78
2019-03-26T18:07:28.339Z,3.74
2019-03-26T18:09:54.690Z,3.70
2019-03-26T18:12:30.850Z,3.73
2019-03-26T18:14:49.340Z,3.65
2019-03-26T18:17:15.546Z,3.58
2019-03-26T18:19:41.794Z,3.56
2019-03-26T18:22:08.052Z,3.55
2019-03-26T18:24:34.388Z,3.51
2019-03-26T18:27:00.522Z,3.48
2019-03-26T18:29:26.837Z,3.48
2019-03-26T18:31:53.040Z,3.42
2019-03-26T18:34:19.269Z,3.37
2019-03-26T18:36:45.655Z,3.32
2019-03-26T18:39:12.046Z,3.28
2019-03-26T18:41:38.542Z,3.24
2019-03-26T18:44:04.758Z,3.21
2019-03-26T18:46:30.872Z,3.20
2019-03-26T18:48:57.167Z,3.18
2019-03-26T18:51:24.394Z,3.17
2019-03-26T18:53:50.696Z,3.18
2019-03-26T18:56:16.828Z,3.16
2019-03-26T18:58:43.190Z,3.16
2019-03-26T19:01:09.906Z,3.14
2019-03-26T19:03:36.227Z,3.13
2019-03-26T19:06:02.725Z,3.17
2019-03-26T19:08:28.822Z,3.18
2019-03-26T19:10:55.101Z,3.13
2019-03-26T19:13:21.203Z,3.10
2019-03-26T19:15:47.516Z,3.13
2019-03-26T19:18:13.678Z,3.13
2019-03-26T19:20:39.878Z,3.11
2019-03-26T19:23:06.107Z,3.10
2019-03-26T19:25:32.539Z,3.12
2019-03-26T19:27:58.894Z,3.13
2019-03-26T19:30:25.060Z,3.13
2019-03-26T19:32:51.313Z,3.13
2019-03-26T19:35:17.574Z,3.11
2019-03-26T19:37:43.812Z,3.13
2019-03-26T19:40:10.235Z,3.09
2019-03-26T19:42:36.464Z,3.08
2019-03-26T19:45:03.364Z,3.10
2019-03-26T19:47:29.581Z,3.08
2019-03-26T19:49:55.700Z,3.09
2019-03-26T19:52:21.927Z,3.06
2019-03-26T19:54:48.081Z,3.04
2019-03-26T19:57:14.322Z,3.04
2019-03-26T19:59:41.472Z,2.94
2019-03-26T20:02:07.785Z,2.90
2019-03-26T20:04:35.169Z,2.86
2019-03-26T20:07:01.423Z,2.85
2019-03-26T20:09:27.652Z,2.84
2019-03-26T20:11:53.744Z,2.81
2019-03-26T20:14:20.125Z,2.81
2019-03-26T20:16:46.305Z,2.81
2019-03-26T20:19:12.455Z,2.78
2019-03-26T20:21:38.608Z,2.78
2019-03-26T20:24:05.855Z,2.82
2019-03-26T20:26:32.386Z,2.83
2019-03-26T20:28:59.278Z,2.84
2019-03-26T20:31:25.615Z,2.84
2019-03-26T20:33:52.068Z,2.84
2019-03-26T20:36:19.311Z,2.89
2019-03-26T20:38:45.701Z,2.84
2019-03-26T20:41:12.008Z,2.84
2019-03-26T20:43:39.658Z,2.82
2019-03-26T20:46:05.920Z,2.82
2019-03-26T20:48:32.169Z,2.85
2019-03-26T20:50:58.592Z,2.82
2019-03-26T20:53:24.919Z,2.77
2019-03-26T20:55:54.580Z,2.75
2019-03-26T20:58:19.998Z,2.79
2019-03-26T21:00:46.550Z,2.78
2019-03-26T21:03:13.128Z,2.77
2019-03-26T21:05:39.505Z,2.79
2019-03-26T21:08:06.090Z,2.77
2019-03-26T21:10:32.556Z,2.77
2019-03-26T21:12:59.219Z,2.78
2019-03-26T21:15:25.538Z,2.75
2019-03-26T21:17:51.637Z,2.67
2019-03-26T21:20:17.969Z,2.62
2019-03-26T21:22:44.204Z,2.56
2019-03-26T21:25:10.740Z,2.55
2019-03-26T21:27:36.845Z,2.53
2019-03-26T21:30:11.615Z,2.49
2019-03-26T21:32:37.911Z,2.48
2019-03-26T21:35:05.297Z,2.51
2019-03-26T21:37:31.500Z,2.45
2019-03-26T21:39:57.762Z,2.43
2019-03-26T21:42:23.965Z,2.47
2019-03-26T21:44:50.137Z,2.45
2019-03-26T21:47:16.367Z,2.49
2019-03-26T21:49:42.536Z,2.49
2019-03-26T21:52:08.803Z,2.51
2019-03-26T21:54:35.035Z,2.51
2019-03-26T21:57:01.398Z,2.50
2019-03-26T21:59:28.862Z,2.53
2019-03-26T22:04:27.546Z,2.59
2019-03-26T22:06:53.702Z,2.59
2019-03-26T22:09:20.978Z,2.59
2019-03-26T22:11:50.178Z,2.57
2019-03-26T22:14:18.150Z,2.57
2019-03-26T22:16:43.560Z,2.56
2019-03-26T22:19:09.840Z,2.55
2019-03-26T22:21:36.215Z,2.54
2019-03-26T22:24:02.661Z,2.55
2019-03-26T22:26:28.812Z,2.56
2019-03-26T22:28:55.035Z,2.57
2019-03-26T22:31:21.193Z,2.59
2019-03-26T22:33:47.498Z,2.58
2019-03-26T22:36:13.777Z,2.60
2019-03-26T22:38:40.010Z,2.64
2019-03-26T22:41:06.117Z,2.65
2019-03-26T22:43:32.324Z,2.67
2019-03-26T22:45:58.493Z,2.65
2019-03-26T22:48:28.079Z,2.66
2019-03-26T22:50:54.324Z,2.65
2019-03-26T22:53:20.584Z,2.64
2019-03-26T22:55:46.733Z,2.58
2019-03-26T22:58:12.910Z,2.53
2019-03-26T23:00:39.261Z,2.53
2019-03-26T23:03:07.260Z,2.54
2019-03-26T23:05:33.676Z,2.58
2019-03-26T23:07:59.973Z,2.61
2019-03-26T23:10:26.189Z,2.65
2019-03-26T23:12:52.367Z,2.69
2019-03-26T23:15:21.924Z,2.72
2019-03-26T23:17:48.939Z,2.78
2019-03-26T23:20:15.185Z,2.80
2019-03-26T23:22:41.615Z,2.85
2019-03-26T23:25:09.130Z,2.88
2019-03-26T23:27:35.459Z,2.89
2019-03-26T23:30:04.057Z,2.93
2019-03-26T23:32:30.318Z,2.98
2019-03-26T23:34:56.582Z,3.00
2019-03-26T23:37:22.782Z,3.03
2019-03-26T23:39:48.936Z,3.00
2019-03-26T23:42:15.185Z,3.01
2019-03-26T23:44:41.386Z,2.99
2019-03-26T23:47:07.617Z,3.00
2019-03-26T23:49:34.890Z,3.02
2019-03-26T23:52:01.113Z,3.06
2019-03-26T23:54:27.355Z,3.09
2019-03-26T23:56:53.525Z,3.12
2019-03-26T23:59:19.683Z,3.14
